sensor_id;sensor_type;location;lat;lon;timestamp;pressure;altitude;pressure_sealevel;temperature;humidity
40940;BME280;26666;50.156;7.700;2022-12-16T00:01:21;99749.16;;;-1.75;87.30
40940;BME280;26666;50.156;7.700;2022-12-16T00:06:25;99749.25;;;-1.77;86.26
40940;BME280;26666;50.156;7.700;2022-12-16T00:11:27;99738.06;;;-2.19;88.78
40940;BME280;26666;50.156;7.700;2022-12-16T00:16:29;99735.03;;;-2.08;89.97
40940;BME280;26666;50.156;7.700;2022-12-16T00:21:30;99734.00;;;-2.04;90.18
40940;BME280;26666;50.156;7.700;2022-12-16T00:26:32;99734.94;;;-1.86;90.04
40940;BME280;26666;50.156;7.700;2022-12-16T00:31:33;99735.47;;;-1.79;89.28
40940;BME280;26666;50.156;7.700;2022-12-16T00:36:35;99735.25;;;-1.73;89.31
40940;BME280;26666;50.156;7.700;2022-12-16T00:41:36;99733.81;;;-1.80;90.57
40940;BME280;26666;50.156;7.700;2022-12-16T00:46:38;99735.63;;;-1.82;89.99
40940;BME280;26666;50.156;7.700;2022-12-16T00:51:39;99740.25;;;-1.70;89.17
40940;BME280;26666;50.156;7.700;2022-12-16T00:56:41;99734.19;;;-1.50;88.22
40940;BME280;26666;50.156;7.700;2022-12-16T01:01:42;99736.63;;;-1.66;88.01
40940;BME280;26666;50.156;7.700;2022-12-16T01:06:45;99750.88;;;-1.95;89.86
40940;BME280;26666;50.156;7.700;2022-12-16T01:11:47;99753.44;;;-1.95;89.27
40940;BME280;26666;50.156;7.700;2022-12-16T01:16:49;99747.69;;;-1.62;88.60
40940;BME280;26666;50.156;7.700;2022-12-16T01:21:50;99759.09;;;-1.66;86.94
40940;BME280;26666;50.156;7.700;2022-12-16T01:26:52;99767.94;;;-1.91;89.29
40940;BME280;26666;50.156;7.700;2022-12-16T01:31:54;99777.78;;;-1.99;88.81
40940;BME280;26666;50.156;7.700;2022-12-16T01:36:55;99780.50;;;-1.82;88.63
40940;BME280;26666;50.156;7.700;2022-12-16T01:41:57;99790.75;;;-1.99;87.16
40940;BME280;26666;50.156;7.700;2022-12-16T01:47:01;99794.56;;;-2.28;89.48
40940;BME280;26666;50.156;7.700;2022-12-16T01:52:08;99784.66;;;-2.19;87.85
40940;BME280;26666;50.156;7.700;2022-12-16T01:57:12;99791.94;;;-2.06;89.34
40940;BME280;26666;50.156;7.700;2022-12-16T02:02:16;99808.63;;;-2.13;89.37
40940;BME280;26666;50.156;7.700;2022-12-16T02:07:18;99808.69;;;-2.15;89.31
40940;BME280;26666;50.156;7.700;2022-12-16T02:13:20;99810.94;;;-2.07;88.31
40940;BME280;26666;50.156;7.700;2022-12-16T02:18:16;99807.97;;;-2.19;88.72
40940;BME280;26666;50.156;7.700;2022-12-16T02:29:27;99801.25;;;-2.02;88.32
40940;BME280;26666;50.156;7.700;2022-12-16T02:34:51;99800.97;;;-1.96;87.87
40940;BME280;26666;50.156;7.700;2022-12-16T02:40:02;99804.41;;;-1.95;87.69
40940;BME280;26666;50.156;7.700;2022-12-16T02:45:16;99806.78;;;-1.91;87.93
40940;BME280;26666;50.156;7.700;2022-12-16T02:50:37;99805.50;;;-1.81;87.28
40940;BME280;26666;50.156;7.700;2022-12-16T02:55:52;99806.16;;;-1.96;87.17
40940;BME280;26666;50.156;7.700;2022-12-16T03:05:56;99805.88;;;-2.10;86.47
40940;BME280;26666;50.156;7.700;2022-12-16T03:11:03;99807.97;;;-2.19;86.90
40940;BME280;26666;50.156;7.700;2022-12-16T03:16:07;99805.78;;;-1.87;86.56
40940;BME280;26666;50.156;7.700;2022-12-16T03:21:12;99811.47;;;-2.20;86.52
40940;BME280;26666;50.156;7.700;2022-12-16T03:26:19;99817.72;;;-2.05;88.02
40940;BME280;26666;50.156;7.700;2022-12-16T03:31:38;99815.09;;;-2.03;85.14
40940;BME280;26666;50.156;7.700;2022-12-16T03:36:43;99808.53;;;-1.91;84.50
40940;BME280;26666;50.156;7.700;2022-12-16T03:41:51;99805.44;;;-2.00;83.72
40940;BME280;26666;50.156;7.700;2022-12-16T03:46:54;99811.72;;;-2.05;82.98
40940;BME280;26666;50.156;7.700;2022-12-16T03:51:55;99810.81;;;-2.04;83.12
40940;BME280;26666;50.156;7.700;2022-12-16T03:56:57;99809.84;;;-2.02;82.19
40940;BME280;26666;50.156;7.700;2022-12-16T04:01:58;99817.94;;;-2.09;82.44
40940;BME280;26666;50.156;7.700;2022-12-16T04:07:00;99818.38;;;-2.20;82.74
40940;BME280;26666;50.156;7.700;2022-12-16T04:12:02;99821.50;;;-2.12;82.16
40940;BME280;26666;50.156;7.700;2022-12-16T04:17:04;99818.97;;;-2.13;82.11
40940;BME280;26666;50.156;7.700;2022-12-16T04:22:14;99824.84;;;-2.30;82.38
40940;BME280;26666;50.156;7.700;2022-12-16T04:27:18;99833.84;;;-2.39;81.30
40940;BME280;26666;50.156;7.700;2022-12-16T04:32:19;99833.28;;;-2.47;81.31
40940;BME280;26666;50.156;7.700;2022-12-16T04:37:21;99835.91;;;-2.27;81.20
40940;BME280;26666;50.156;7.700;2022-12-16T04:42:22;99844.75;;;-2.32;80.97
40940;BME280;26666;50.156;7.700;2022-12-16T04:47:24;99856.63;;;-2.49;80.97
40940;BME280;26666;50.156;7.700;2022-12-16T04:52:26;99854.69;;;-2.44;79.99
40940;BME280;26666;50.156;7.700;2022-12-16T04:57:27;99856.22;;;-2.60;80.29
40940;BME280;26666;50.156;7.700;2022-12-16T05:02:29;99869.75;;;-2.53;81.87
40940;BME280;26666;50.156;7.700;2022-12-16T05:07:30;99870.75;;;-2.58;82.02
40940;BME280;26666;50.156;7.700;2022-12-16T05:12:38;99872.53;;;-2.58;81.21
40940;BME280;26666;50.156;7.700;2022-12-16T05:17:40;99879.31;;;-2.55;81.55
40940;BME280;26666;50.156;7.700;2022-12-16T05:22:42;99886.47;;;-2.62;81.89
40940;BME280;26666;50.156;7.700;2022-12-16T05:27:43;99892.59;;;-2.65;82.08
40940;BME280;26666;50.156;7.700;2022-12-16T05:32:47;99904.81;;;-2.68;81.93
40940;BME280;26666;50.156;7.700;2022-12-16T05:37:49;99909.47;;;-2.54;81.56
40940;BME280;26666;50.156;7.700;2022-12-16T05:42:50;99925.31;;;-2.64;82.16
40940;BME280;26666;50.156;7.700;2022-12-16T05:47:52;99937.00;;;-2.53;80.97
40940;BME280;26666;50.156;7.700;2022-12-16T05:52:55;99940.09;;;-2.67;81.82
40940;BME280;26666;50.156;7.700;2022-12-16T05:57:56;99950.78;;;-2.53;82.32
40940;BME280;26666;50.156;7.700;2022-12-16T06:02:58;99956.03;;;-2.54;81.97
40940;BME280;26666;50.156;7.700;2022-12-16T06:08:00;99964.97;;;-2.63;82.04
40940;BME280;26666;50.156;7.700;2022-12-16T06:13:01;99972.75;;;-2.65;81.98
40940;BME280;26666;50.156;7.700;2022-12-16T06:18:03;99971.97;;;-2.67;81.73
40940;BME280;26666;50.156;7.700;2022-12-16T06:23:05;99982.75;;;-2.78;81.48
40940;BME280;26666;50.156;7.700;2022-12-16T06:28:06;99989.88;;;-2.61;82.15
40940;BME280;26666;50.156;7.700;2022-12-16T06:33:08;99987.34;;;-2.62;81.54
40940;BME280;26666;50.156;7.700;2022-12-16T06:38:09;99997.94;;;-2.68;81.82
40940;BME280;26666;50.156;7.700;2022-12-16T06:43:11;100005.22;;;-2.56;81.60
40940;BME280;26666;50.156;7.700;2022-12-16T06:48:12;100019.91;;;-2.80;81.23
40940;BME280;26666;50.156;7.700;2022-12-16T06:53:14;100030.63;;;-2.67;81.89
40940;BME280;26666;50.156;7.700;2022-12-16T06:58:15;100034.69;;;-2.84;82.01
40940;BME280;26666;50.156;7.700;2022-12-16T07:03:17;100044.84;;;-2.79;82.09
40940;BME280;26666;50.156;7.700;2022-12-16T07:08:19;100057.22;;;-2.87;81.95
40940;BME280;26666;50.156;7.700;2022-12-16T07:13:20;100056.19;;;-2.83;81.67
40940;BME280;26666;50.156;7.700;2022-12-16T07:18:22;100062.06;;;-3.03;81.06
40940;BME280;26666;50.156;7.700;2022-12-16T07:23:23;100077.88;;;-3.12;80.73
40940;BME280;26666;50.156;7.700;2022-12-16T07:28:25;100085.16;;;-2.99;80.19
40940;BME280;26666;50.156;7.700;2022-12-16T07:33:26;100100.84;;;-3.03;79.66
40940;BME280;26666;50.156;7.700;2022-12-16T07:38:28;100103.94;;;-3.19;79.00
40940;BME280;26666;50.156;7.700;2022-12-16T07:43:29;100111.75;;;-2.95;79.82
40940;BME280;26666;50.156;7.700;2022-12-16T07:48:31;100122.06;;;-2.93;79.56
40940;BME280;26666;50.156;7.700;2022-12-16T07:53:33;100122.47;;;-2.81;78.63
40940;BME280;26666;50.156;7.700;2022-12-16T07:58:35;100125.91;;;-3.05;80.36
40940;BME280;26666;50.156;7.700;2022-12-16T08:03:37;100134.25;;;-2.97;80.00
40940;BME280;26666;50.156;7.700;2022-12-16T08:08:38;100135.31;;;-3.04;79.65
40940;BME280;26666;50.156;7.700;2022-12-16T08:13:40;100146.25;;;-2.96;79.01
40940;BME280;26666;50.156;7.700;2022-12-16T08:18:42;100153.59;;;-3.09;81.53
40940;BME280;26666;50.156;7.700;2022-12-16T08:23:43;100155.06;;;-3.02;81.28
40940;BME280;26666;50.156;7.700;2022-12-16T08:28:45;100174.38;;;-2.60;80.87
40940;BME280;26666;50.156;7.700;2022-12-16T08:33:46;100175.00;;;-2.28;79.71
40940;BME280;26666;50.156;7.700;2022-12-16T08:38:48;100182.63;;;-2.24;79.48
40940;BME280;26666;50.156;7.700;2022-12-16T08:43:49;100191.31;;;-2.26;79.05
40940;BME280;26666;50.156;7.700;2022-12-16T08:48:51;100200.00;;;-2.27;79.85
40940;BME280;26666;50.156;7.700;2022-12-16T08:53:53;100207.28;;;-2.39;80.51
40940;BME280;26666;50.156;7.700;2022-12-16T08:58:54;100212.28;;;-2.34;79.77
40940;BME280;26666;50.156;7.700;2022-12-16T09:03:55;100208.59;;;-2.27;79.89
40940;BME280;26666;50.156;7.700;2022-12-16T09:08:57;100216.41;;;-2.28;79.05
40940;BME280;26666;50.156;7.700;2022-12-16T09:13:59;100225.84;;;-2.02;79.72
40940;BME280;26666;50.156;7.700;2022-12-16T09:19:00;100218.88;;;-2.00;79.73
40940;BME280;26666;50.156;7.700;2022-12-16T09:24:02;100224.56;;;-2.39;79.75
40940;BME280;26666;50.156;7.700;2022-12-16T09:29:03;100228.81;;;-2.38;80.95
40940;BME280;26666;50.156;7.700;2022-12-16T09:34:05;100233.19;;;-2.40;80.81
40940;BME280;26666;50.156;7.700;2022-12-16T09:39:07;100236.44;;;-2.33;80.95
40940;BME280;26666;50.156;7.700;2022-12-16T09:49:45;100242.09;;;-2.74;83.48
40940;BME280;26666;50.156;7.700;2022-12-16T09:54:47;100251.00;;;-2.84;84.92
40940;BME280;26666;50.156;7.700;2022-12-16T10:00:02;100253.00;;;-2.92;86.14
40940;BME280;26666;50.156;7.700;2022-12-16T10:05:18;100251.00;;;-2.84;86.32
40940;BME280;26666;50.156;7.700;2022-12-16T10:10:37;100252.81;;;-2.60;85.41
40940;BME280;26666;50.156;7.700;2022-12-16T10:20:57;100254.38;;;-2.54;85.71
40940;BME280;26666;50.156;7.700;2022-12-16T10:31:26;100268.31;;;-2.58;85.42
40940;BME280;26666;50.156;7.700;2022-12-16T10:36:34;100269.72;;;-2.49;84.93
40940;BME280;26666;50.156;7.700;2022-12-16T10:41:39;100265.34;;;-2.47;86.11
40940;BME280;26666;50.156;7.700;2022-12-16T10:46:42;100273.31;;;-2.53;86.02
40940;BME280;26666;50.156;7.700;2022-12-16T10:51:44;100268.84;;;-2.48;85.95
40940;BME280;26666;50.156;7.700;2022-12-16T10:56:54;100276.22;;;-2.38;85.84
40940;BME280;26666;50.156;7.700;2022-12-16T11:02:04;100273.25;;;-2.00;86.76
40940;BME280;26666;50.156;7.700;2022-12-16T11:07:21;100270.53;;;-2.22;86.21
40940;BME280;26666;50.156;7.700;2022-12-16T11:12:27;100274.09;;;-2.25;86.69
40940;BME280;26666;50.156;7.700;2022-12-16T11:17:29;100275.31;;;-2.35;87.01
40940;BME280;26666;50.156;7.700;2022-12-16T11:22:31;100273.84;;;-2.17;87.31
40940;BME280;26666;50.156;7.700;2022-12-16T11:27:32;100272.06;;;-2.42;87.03
40940;BME280;26666;50.156;7.700;2022-12-16T11:32:34;100279.50;;;-2.06;85.76
40940;BME280;26666;50.156;7.700;2022-12-16T11:37:37;100277.81;;;-2.08;86.32
40940;BME280;26666;50.156;7.700;2022-12-16T11:42:40;100284.44;;;-2.00;86.45
40940;BME280;26666;50.156;7.700;2022-12-16T11:47:46;100283.91;;;-2.09;86.43
40940;BME280;26666;50.156;7.700;2022-12-16T11:52:52;100289.09;;;-1.84;86.04
40940;BME280;26666;50.156;7.700;2022-12-16T11:58:20;100291.50;;;-2.30;88.28
40940;BME280;26666;50.156;7.700;2022-12-16T12:03:26;100306.91;;;-2.00;87.29
40940;BME280;26666;50.156;7.700;2022-12-16T12:08:38;100307.13;;;-2.06;87.96
40940;BME280;26666;50.156;7.700;2022-12-16T12:13:50;100309.56;;;-1.76;87.80
40940;BME280;26666;50.156;7.700;2022-12-16T12:19:03;100302.44;;;-1.71;87.18
40940;BME280;26666;50.156;7.700;2022-12-16T12:30:03;100315.22;;;-1.42;86.74
40940;BME280;26666;50.156;7.700;2022-12-16T12:46:07;100324.72;;;-1.18;83.94
40940;BME280;26666;50.156;7.700;2022-12-16T12:51:16;100324.22;;;-1.05;85.43
40940;BME280;26666;50.156;7.700;2022-12-16T13:01:25;100330.13;;;-1.01;85.28
40940;BME280;26666;50.156;7.700;2022-12-16T13:06:30;100331.06;;;-1.04;85.79
40940;BME280;26666;50.156;7.700;2022-12-16T13:11:32;100336.09;;;-0.99;85.57
40940;BME280;26666;50.156;7.700;2022-12-16T13:21:46;100330.00;;;-0.98;84.87
40940;BME280;26666;50.156;7.700;2022-12-16T13:26:59;100337.72;;;-0.96;85.45
40940;BME280;26666;50.156;7.700;2022-12-16T13:37:25;100344.81;;;-1.02;85.79
40940;BME280;26666;50.156;7.700;2022-12-16T13:42:48;100354.19;;;-0.97;85.98
40940;BME280;26666;50.156;7.700;2022-12-16T13:52:57;100358.56;;;-1.00;85.87
40940;BME280;26666;50.156;7.700;2022-12-16T13:58:03;100366.72;;;-1.09;86.68
40940;BME280;26666;50.156;7.700;2022-12-16T14:03:17;100375.06;;;-1.01;86.57
40940;BME280;26666;50.156;7.700;2022-12-16T14:08:22;100372.97;;;-1.14;86.42
40940;BME280;26666;50.156;7.700;2022-12-16T14:13:32;100370.53;;;-1.19;86.42
40940;BME280;26666;50.156;7.700;2022-12-16T14:19:07;100378.59;;;-1.27;86.86
40940;BME280;26666;50.156;7.700;2022-12-16T14:24:26;100385.84;;;-1.36;86.86
40940;BME280;26666;50.156;7.700;2022-12-16T14:29:30;100395.34;;;-1.35;86.51
40940;BME280;26666;50.156;7.700;2022-12-16T14:34:35;100400.97;;;-1.48;85.88
40940;BME280;26666;50.156;7.700;2022-12-16T14:39:38;100403.69;;;-1.52;85.23
40940;BME280;26666;50.156;7.700;2022-12-16T14:44:43;100414.22;;;-1.57;85.67
40940;BME280;26666;50.156;7.700;2022-12-16T14:49:49;100424.84;;;-1.65;85.13
40940;BME280;26666;50.156;7.700;2022-12-16T14:54:51;100441.00;;;-1.83;84.46
40940;BME280;26666;50.156;7.700;2022-12-16T15:00:22;100442.16;;;-1.92;84.65
40940;BME280;26666;50.156;7.700;2022-12-16T15:05:29;100452.00;;;-2.03;84.37
40940;BME280;26666;50.156;7.700;2022-12-16T15:10:33;100461.63;;;-2.07;84.04
40940;BME280;26666;50.156;7.700;2022-12-16T15:15:38;100461.06;;;-2.16;83.47
40940;BME280;26666;50.156;7.700;2022-12-16T15:20:48;100470.88;;;-2.28;84.14
40940;BME280;26666;50.156;7.700;2022-12-16T15:25:55;100478.75;;;-2.31;83.44
40940;BME280;26666;50.156;7.700;2022-12-16T15:31:12;100486.06;;;-2.45;83.58
40940;BME280;26666;50.156;7.700;2022-12-16T15:41:31;100506.06;;;-2.80;82.24
40940;BME280;26666;50.156;7.700;2022-12-16T15:46:35;100516.25;;;-2.74;82.06
40940;BME280;26666;50.156;7.700;2022-12-16T15:51:45;100526.97;;;-2.88;82.97
40940;BME280;26666;50.156;7.700;2022-12-16T15:56:50;100534.53;;;-2.80;82.27
40940;BME280;26666;50.156;7.700;2022-12-16T16:01:54;100546.75;;;-2.87;82.25
40940;BME280;26666;50.156;7.700;2022-12-16T16:07:13;100556.44;;;-2.93;82.96
40940;BME280;26666;50.156;7.700;2022-12-16T16:12:19;100560.84;;;-2.99;81.73
40940;BME280;26666;50.156;7.700;2022-12-16T16:17:21;100563.06;;;-3.18;81.81
40940;BME280;26666;50.156;7.700;2022-12-16T16:22:23;100569.00;;;-3.14;81.64
40940;BME280;26666;50.156;7.700;2022-12-16T16:27:26;100577.03;;;-3.25;81.22
40940;BME280;26666;50.156;7.700;2022-12-16T16:32:28;100584.06;;;-3.30;81.49
40940;BME280;26666;50.156;7.700;2022-12-16T16:37:30;100585.25;;;-3.45;82.18
40940;BME280;26666;50.156;7.700;2022-12-16T16:42:31;100597.97;;;-3.35;82.11
40940;BME280;26666;50.156;7.700;2022-12-16T16:47:33;100604.25;;;-3.46;81.89
40940;BME280;26666;50.156;7.700;2022-12-16T16:52:34;100607.84;;;-3.53;81.31
40940;BME280;26666;50.156;7.700;2022-12-16T16:57:36;100612.25;;;-3.57;80.93
40940;BME280;26666;50.156;7.700;2022-12-16T17:02:38;100615.91;;;-3.65;81.15
40940;BME280;26666;50.156;7.700;2022-12-16T17:07:42;100622.84;;;-3.69;81.17
40940;BME280;26666;50.156;7.700;2022-12-16T17:12:44;100621.22;;;-3.73;80.91
40940;BME280;26666;50.156;7.700;2022-12-16T17:17:45;100630.28;;;-3.94;81.17
40940;BME280;26666;50.156;7.700;2022-12-16T17:22:47;100627.56;;;-3.88;81.30
40940;BME280;26666;50.156;7.700;2022-12-16T17:27:48;100635.25;;;-3.85;80.33
40940;BME280;26666;50.156;7.700;2022-12-16T17:32:50;100648.09;;;-3.82;80.74
40940;BME280;26666;50.156;7.700;2022-12-16T17:37:52;100657.63;;;-3.85;80.66
40940;BME280;26666;50.156;7.700;2022-12-16T17:42:53;100661.53;;;-3.66;80.81
40940;BME280;26666;50.156;7.700;2022-12-16T17:47:54;100671.63;;;-3.55;80.76
40940;BME280;26666;50.156;7.700;2022-12-16T17:52:57;100676.13;;;-3.63;81.08
40940;BME280;26666;50.156;7.700;2022-12-16T17:57:59;100687.16;;;-3.58;81.44
40940;BME280;26666;50.156;7.700;2022-12-16T18:03:00;100695.31;;;-3.75;81.29
40940;BME280;26666;50.156;7.700;2022-12-16T18:08:02;100703.41;;;-3.93;82.01
40940;BME280;26666;50.156;7.700;2022-12-16T18:13:04;100705.72;;;-3.80;82.30
40940;BME280;26666;50.156;7.700;2022-12-16T18:18:05;100714.50;;;-3.88;81.69
40940;BME280;26666;50.156;7.700;2022-12-16T18:23:07;100728.22;;;-3.86;81.99
40940;BME280;26666;50.156;7.700;2022-12-16T18:28:08;100725.38;;;-3.72;80.89
40940;BME280;26666;50.156;7.700;2022-12-16T18:33:10;100738.22;;;-3.69;80.45
40940;BME280;26666;50.156;7.700;2022-12-16T18:38:11;100740.66;;;-4.07;81.69
40940;BME280;26666;50.156;7.700;2022-12-16T18:43:17;100746.97;;;-4.22;81.83
40940;BME280;26666;50.156;7.700;2022-12-16T18:48:18;100754.69;;;-4.20;82.06
40940;BME280;26666;50.156;7.700;2022-12-16T18:53:19;100750.81;;;-3.98;82.12
40940;BME280;26666;50.156;7.700;2022-12-16T18:58:21;100761.38;;;-4.10;82.58
40940;BME280;26666;50.156;7.700;2022-12-16T19:03:43;100767.47;;;-4.12;82.22
40940;BME280;26666;50.156;7.700;2022-12-16T19:08:44;100767.41;;;-4.09;82.59
40940;BME280;26666;50.156;7.700;2022-12-16T19:13:47;100767.41;;;-4.09;82.24
40940;BME280;26666;50.156;7.700;2022-12-16T19:18:49;100780.84;;;-3.92;82.40
40940;BME280;26666;50.156;7.700;2022-12-16T19:23:51;100796.69;;;-4.12;81.55
40940;BME280;26666;50.156;7.700;2022-12-16T19:28:55;100790.41;;;-4.45;81.80
40940;BME280;26666;50.156;7.700;2022-12-16T19:33:56;100797.19;;;-4.40;82.44
40940;BME280;26666;50.156;7.700;2022-12-16T19:38:59;100809.97;;;-4.33;81.53
40940;BME280;26666;50.156;7.700;2022-12-16T19:44:01;100819.25;;;-4.22;81.08
40940;BME280;26666;50.156;7.700;2022-12-16T19:49:23;100829.03;;;-4.44;82.37
40940;BME280;26666;50.156;7.700;2022-12-16T19:54:25;100839.75;;;-4.14;81.30
40940;BME280;26666;50.156;7.700;2022-12-16T19:59:26;100849.78;;;-4.51;80.98
40940;BME280;26666;50.156;7.700;2022-12-16T20:04:28;100846.22;;;-4.41;81.11
40940;BME280;26666;50.156;7.700;2022-12-16T20:09:29;100855.59;;;-4.37;80.39
40940;BME280;26666;50.156;7.700;2022-12-16T20:14:31;100853.75;;;-4.29;80.31
40940;BME280;26666;50.156;7.700;2022-12-16T20:19:32;100862.44;;;-4.36;80.35
40940;BME280;26666;50.156;7.700;2022-12-16T20:24:34;100874.22;;;-4.18;79.86
40940;BME280;26666;50.156;7.700;2022-12-16T20:29:35;100873.34;;;-4.17;79.92
40940;BME280;26666;50.156;7.700;2022-12-16T20:34:37;100876.69;;;-4.10;80.90
40940;BME280;26666;50.156;7.700;2022-12-16T20:39:38;100879.75;;;-3.90;80.77
40940;BME280;26666;50.156;7.700;2022-12-16T20:44:40;100882.91;;;-3.74;81.29
40940;BME280;26666;50.156;7.700;2022-12-16T20:49:42;100891.72;;;-3.84;81.28
40940;BME280;26666;50.156;7.700;2022-12-16T20:54:43;100907.19;;;-3.83;81.97
40940;BME280;26666;50.156;7.700;2022-12-16T20:59:45;100904.88;;;-3.98;82.09
40940;BME280;26666;50.156;7.700;2022-12-16T21:04:48;100908.13;;;-3.87;83.55
40940;BME280;26666;50.156;7.700;2022-12-16T21:09:50;100912.09;;;-3.69;83.25
40940;BME280;26666;50.156;7.700;2022-12-16T21:14:52;100916.63;;;-3.82;83.95
40940;BME280;26666;50.156;7.700;2022-12-16T21:19:53;100927.19;;;-3.97;87.52
40940;BME280;26666;50.156;7.700;2022-12-16T21:24:56;100930.75;;;-3.53;87.04
40940;BME280;26666;50.156;7.700;2022-12-16T21:29:58;100933.84;;;-3.81;87.23
40940;BME280;26666;50.156;7.700;2022-12-16T21:34:59;100940.66;;;-3.77;87.83
40940;BME280;26666;50.156;7.700;2022-12-16T21:40:01;100943.88;;;-3.64;87.71
40940;BME280;26666;50.156;7.700;2022-12-16T21:45:03;100966.50;;;-3.80;87.87
40940;BME280;26666;50.156;7.700;2022-12-16T21:50:05;100965.53;;;-3.72;87.70
40940;BME280;26666;50.156;7.700;2022-12-16T21:55:06;100972.91;;;-3.49;87.88
40940;BME280;26666;50.156;7.700;2022-12-16T22:00:08;100984.47;;;-3.72;87.96
40940;BME280;26666;50.156;7.700;2022-12-16T22:05:10;100982.38;;;-3.50;87.92
40940;BME280;26666;50.156;7.700;2022-12-16T22:10:12;100987.47;;;-3.45;88.57
40940;BME280;26666;50.156;7.700;2022-12-16T22:15:13;100992.63;;;-3.44;87.92
40940;BME280;26666;50.156;7.700;2022-12-16T22:20:15;100995.31;;;-3.50;88.41
40940;BME280;26666;50.156;7.700;2022-12-16T22:25:16;100999.44;;;-3.40;88.62
40940;BME280;26666;50.156;7.700;2022-12-16T22:30:18;101006.38;;;-3.43;88.74
40940;BME280;26666;50.156;7.700;2022-12-16T22:35:19;101012.47;;;-3.46;89.55
40940;BME280;26666;50.156;7.700;2022-12-16T22:40:21;101016.47;;;-3.29;88.51
40940;BME280;26666;50.156;7.700;2022-12-16T22:45:23;101026.75;;;-3.25;89.06
40940;BME280;26666;50.156;7.700;2022-12-16T22:50:24;101042.97;;;-3.17;89.21
40940;BME280;26666;50.156;7.700;2022-12-16T22:55:26;101041.22;;;-3.16;89.37
40940;BME280;26666;50.156;7.700;2022-12-16T23:00:27;101039.41;;;-3.09;87.95
40940;BME280;26666;50.156;7.700;2022-12-16T23:05:29;101056.06;;;-3.27;89.51
40940;BME280;26666;50.156;7.700;2022-12-16T23:10:31;101064.53;;;-3.19;89.23
40940;BME280;26666;50.156;7.700;2022-12-16T23:15:32;101043.56;;;-3.02;87.22
40940;BME280;26666;50.156;7.700;2022-12-16T23:20:34;101062.03;;;-2.75;85.96
40940;BME280;26666;50.156;7.700;2022-12-16T23:25:35;101055.38;;;-2.87;86.85
40940;BME280;26666;50.156;7.700;2022-12-16T23:30:37;101058.47;;;-2.68;84.80
40940;BME280;26666;50.156;7.700;2022-12-16T23:35:39;101065.06;;;-3.00;85.36
40940;BME280;26666;50.156;7.700;2022-12-16T23:40:40;101060.53;;;-2.87;84.36
40940;BME280;26666;50.156;7.700;2022-12-16T23:45:42;101063.09;;;-2.86;83.75
40940;BME280;26666;50.156;7.700;2022-12-16T23:50:44;101082.03;;;-2.85;84.33
40940;BME280;26666;50.156;7.700;2022-12-16T23:55:45;101081.06;;;-2.78;82.80
